sensor_id;sensor_type;location;lat;lon;timestamp;temperature;humidity
68867;SHT30;56451;44.804;20.476;2023-07-29T00:00:57;25.96;46.27
68867;SHT30;56451;44.804;20.476;2023-07-29T00:03:22;26.01;46.24
68867;SHT30;56451;44.804;20.476;2023-07-29T00:05:49;26.02;46.21
68867;SHT30;56451;44.804;20.476;2023-07-29T00:08:15;26.01;46.29
68867;SHT30;56451;44.804;20.476;2023-07-29T00:10:41;25.98;46.17
68867;SHT30;56451;44.804;20.476;2023-07-29T00:13:07;25.96;46.28
68867;SHT30;56451;44.804;20.476;2023-07-29T00:15:33;25.95;46.61
68867;SHT30;56451;44.804;20.476;2023-07-29T00:18:00;25.88;47.16
68867;SHT30;56451;44.804;20.476;2023-07-29T00:20:26;25.85;47.00
68867;SHT30;56451;44.804;20.476;2023-07-29T00:22:52;25.82;48.00
68867;SHT30;56451;44.804;20.476;2023-07-29T00:25:21;25.82;50.84
68867;SHT30;56451;44.804;20.476;2023-07-29T00:27:47;25.78;52.49
68867;SHT30;56451;44.804;20.476;2023-07-29T00:30:13;25.68;53.14
68867;SHT30;56451;44.804;20.476;2023-07-29T00:32:39;25.64;53.48
68867;SHT30;56451;44.804;20.476;2023-07-29T00:35:05;25.54;53.98
68867;SHT30;56451;44.804;20.476;2023-07-29T00:37:32;25.51;54.43
68867;SHT30;56451;44.804;20.476;2023-07-29T00:39:58;25.44;55.03
68867;SHT30;56451;44.804;20.476;2023-07-29T00:42:24;25.35;55.83
68867;SHT30;56451;44.804;20.476;2023-07-29T00:44:51;25.27;56.22
68867;SHT30;56451;44.804;20.476;2023-07-29T00:47:17;25.24;56.51
68867;SHT30;56451;44.804;20.476;2023-07-29T00:49:44;25.15;56.85
68867;SHT30;56451;44.804;20.476;2023-07-29T00:52:11;25.12;57.12
68867;SHT30;56451;44.804;20.476;2023-07-29T00:54:39;25.09;57.28
68867;SHT30;56451;44.804;20.476;2023-07-29T00:57:07;25.06;57.34
68867;SHT30;56451;44.804;20.476;2023-07-29T00:59:35;25.03;57.29
68867;SHT30;56451;44.804;20.476;2023-07-29T01:02:02;25.05;56.68
68867;SHT30;56451;44.804;20.476;2023-07-29T01:04:31;25.06;56.57
68867;SHT30;56451;44.804;20.476;2023-07-29T01:07:07;25.03;56.89
68867;SHT30;56451;44.804;20.476;2023-07-29T01:15:10;25.03;54.97
68867;SHT30;56451;44.804;20.476;2023-07-29T01:20:26;25.05;54.36
68867;SHT30;56451;44.804;20.476;2023-07-29T01:22:53;25.06;53.97
68867;SHT30;56451;44.804;20.476;2023-07-29T01:25:19;25.09;54.06
68867;SHT30;56451;44.804;20.476;2023-07-29T01:27:46;25.09;54.21
68867;SHT30;56451;44.804;20.476;2023-07-29T01:30:12;25.12;53.93
68867;SHT30;56451;44.804;20.476;2023-07-29T01:32:44;25.10;53.75
68867;SHT30;56451;44.804;20.476;2023-07-29T01:35:28;25.10;54.04
68867;SHT30;56451;44.804;20.476;2023-07-29T01:38:17;25.09;54.10
68867;SHT30;56451;44.804;20.476;2023-07-29T01:40:44;25.07;53.34
68867;SHT30;56451;44.804;20.476;2023-07-29T01:43:10;25.10;53.52
68867;SHT30;56451;44.804;20.476;2023-07-29T01:45:37;25.10;53.58
68867;SHT30;56451;44.804;20.476;2023-07-29T01:48:05;25.09;53.25
68867;SHT30;56451;44.804;20.476;2023-07-29T01:50:30;25.12;52.92
68867;SHT30;56451;44.804;20.476;2023-07-29T01:52:58;25.09;52.72
68867;SHT30;56451;44.804;20.476;2023-07-29T01:55:24;25.09;52.25
68867;SHT30;56451;44.804;20.476;2023-07-29T01:57:50;25.06;52.36
68867;SHT30;56451;44.804;20.476;2023-07-29T02:00:21;25.06;52.55
68867;SHT30;56451;44.804;20.476;2023-07-29T02:02:47;24.99;52.20
68867;SHT30;56451;44.804;20.476;2023-07-29T02:05:13;25.00;52.30
68867;SHT30;56451;44.804;20.476;2023-07-29T02:07:39;25.06;52.72
68867;SHT30;56451;44.804;20.476;2023-07-29T02:10:05;25.06;52.39
68867;SHT30;56451;44.804;20.476;2023-07-29T02:12:31;25.05;52.90
68867;SHT30;56451;44.804;20.476;2023-07-29T02:14:57;25.05;53.00
68867;SHT30;56451;44.804;20.476;2023-07-29T02:17:23;25.02;52.75
68867;SHT30;56451;44.804;20.476;2023-07-29T02:19:49;25.02;53.13
68867;SHT30;56451;44.804;20.476;2023-07-29T02:22:17;24.99;53.04
68867;SHT30;56451;44.804;20.476;2023-07-29T02:24:44;25.02;52.63
68867;SHT30;56451;44.804;20.476;2023-07-29T02:27:10;25.03;52.66
68867;SHT30;56451;44.804;20.476;2023-07-29T02:29:37;25.05;52.63
68867;SHT30;56451;44.804;20.476;2023-07-29T02:32:13;25.02;52.62
68867;SHT30;56451;44.804;20.476;2023-07-29T02:34:43;24.99;52.61
68867;SHT30;56451;44.804;20.476;2023-07-29T02:37:09;25.00;52.52
68867;SHT30;56451;44.804;20.476;2023-07-29T02:39:35;25.02;52.63
68867;SHT30;56451;44.804;20.476;2023-07-29T02:42:00;24.96;52.62
68867;SHT30;56451;44.804;20.476;2023-07-29T02:44:27;24.93;52.70
68867;SHT30;56451;44.804;20.476;2023-07-29T02:46:53;24.90;52.73
68867;SHT30;56451;44.804;20.476;2023-07-29T02:49:22;24.86;52.69
68867;SHT30;56451;44.804;20.476;2023-07-29T02:51:48;24.89;52.78
68867;SHT30;56451;44.804;20.476;2023-07-29T02:54:14;24.85;52.51
68867;SHT30;56451;44.804;20.476;2023-07-29T02:56:40;24.82;52.25
68867;SHT30;56451;44.804;20.476;2023-07-29T02:59:05;24.82;52.24
68867;SHT30;56451;44.804;20.476;2023-07-29T03:01:31;24.82;52.40
68867;SHT30;56451;44.804;20.476;2023-07-29T03:03:57;24.79;52.48
68867;SHT30;56451;44.804;20.476;2023-07-29T03:06:23;24.78;52.30
68867;SHT30;56451;44.804;20.476;2023-07-29T03:08:50;24.76;51.95
68867;SHT30;56451;44.804;20.476;2023-07-29T03:11:16;24.78;52.02
68867;SHT30;56451;44.804;20.476;2023-07-29T03:13:43;24.75;51.67
68867;SHT30;56451;44.804;20.476;2023-07-29T03:16:14;24.73;51.33
68867;SHT30;56451;44.804;20.476;2023-07-29T03:18:44;24.73;51.37
68867;SHT30;56451;44.804;20.476;2023-07-29T03:21:11;24.75;51.18
68867;SHT30;56451;44.804;20.476;2023-07-29T03:23:37;24.76;51.30
68867;SHT30;56451;44.804;20.476;2023-07-29T03:26:04;24.73;51.47
68867;SHT30;56451;44.804;20.476;2023-07-29T03:28:37;24.75;51.55
68867;SHT30;56451;44.804;20.476;2023-07-29T03:31:04;24.75;51.49
68867;SHT30;56451;44.804;20.476;2023-07-29T03:33:30;24.76;51.55
68867;SHT30;56451;44.804;20.476;2023-07-29T03:35:56;24.75;52.17
68867;SHT30;56451;44.804;20.476;2023-07-29T03:38:22;24.72;51.92
68867;SHT30;56451;44.804;20.476;2023-07-29T03:40:48;24.72;51.78
68867;SHT30;56451;44.804;20.476;2023-07-29T03:43:14;24.71;51.80
68867;SHT30;56451;44.804;20.476;2023-07-29T03:45:40;24.69;51.70
68867;SHT30;56451;44.804;20.476;2023-07-29T03:48:07;24.68;51.93
68867;SHT30;56451;44.804;20.476;2023-07-29T03:50:34;24.69;51.79
68867;SHT30;56451;44.804;20.476;2023-07-29T03:53:02;24.69;51.84
68867;SHT30;56451;44.804;20.476;2023-07-29T03:55:28;24.69;51.82
68867;SHT30;56451;44.804;20.476;2023-07-29T03:57:59;24.69;51.94
68867;SHT30;56451;44.804;20.476;2023-07-29T04:00:25;24.69;51.97
68867;SHT30;56451;44.804;20.476;2023-07-29T04:02:51;24.69;51.65
68867;SHT30;56451;44.804;20.476;2023-07-29T04:05:17;24.73;51.68
68867;SHT30;56451;44.804;20.476;2023-07-29T04:07:44;24.73;51.68
68867;SHT30;56451;44.804;20.476;2023-07-29T04:10:10;24.76;51.33
68867;SHT30;56451;44.804;20.476;2023-07-29T04:12:37;24.73;51.45
68867;SHT30;56451;44.804;20.476;2023-07-29T04:15:03;24.73;51.45
68867;SHT30;56451;44.804;20.476;2023-07-29T04:17:29;24.75;51.62
68867;SHT30;56451;44.804;20.476;2023-07-29T04:19:55;24.73;51.67
68867;SHT30;56451;44.804;20.476;2023-07-29T04:22:25;24.76;51.72
68867;SHT30;56451;44.804;20.476;2023-07-29T04:24:52;24.75;51.84
68867;SHT30;56451;44.804;20.476;2023-07-29T04:27:18;24.73;51.78
68867;SHT30;56451;44.804;20.476;2023-07-29T04:29:44;24.78;51.99
68867;SHT30;56451;44.804;20.476;2023-07-29T04:32:10;24.78;52.36
68867;SHT30;56451;44.804;20.476;2023-07-29T04:34:36;24.78;52.25
68867;SHT30;56451;44.804;20.476;2023-07-29T04:37:02;24.82;52.46
68867;SHT30;56451;44.804;20.476;2023-07-29T04:39:28;24.82;52.36
68867;SHT30;56451;44.804;20.476;2023-07-29T04:41:54;24.83;52.13
68867;SHT30;56451;44.804;20.476;2023-07-29T04:44:20;24.83;52.02
68867;SHT30;56451;44.804;20.476;2023-07-29T04:46:46;24.87;52.18
68867;SHT30;56451;44.804;20.476;2023-07-29T04:49:12;24.92;51.67
68867;SHT30;56451;44.804;20.476;2023-07-29T04:51:38;24.96;52.02
68867;SHT30;56451;44.804;20.476;2023-07-29T04:54:04;24.96;52.07
68867;SHT30;56451;44.804;20.476;2023-07-29T04:56:30;25.00;52.10
68867;SHT30;56451;44.804;20.476;2023-07-29T04:58:56;25.00;52.34
68867;SHT30;56451;44.804;20.476;2023-07-29T05:01:22;25.05;52.30
68867;SHT30;56451;44.804;20.476;2023-07-29T05:03:48;25.05;52.54
68867;SHT30;56451;44.804;20.476;2023-07-29T05:06:14;25.07;52.69
68867;SHT30;56451;44.804;20.476;2023-07-29T05:08:39;25.07;52.63
68867;SHT30;56451;44.804;20.476;2023-07-29T05:11:05;25.10;52.95
68867;SHT30;56451;44.804;20.476;2023-07-29T05:13:31;25.12;52.88
68867;SHT30;56451;44.804;20.476;2023-07-29T05:15:57;25.16;52.93
68867;SHT30;56451;44.804;20.476;2023-07-29T05:18:23;25.17;53.03
68867;SHT30;56451;44.804;20.476;2023-07-29T05:20:49;25.20;53.20
68867;SHT30;56451;44.804;20.476;2023-07-29T05:23:15;25.24;53.28
68867;SHT30;56451;44.804;20.476;2023-07-29T05:25:41;25.28;53.58
68867;SHT30;56451;44.804;20.476;2023-07-29T05:28:07;25.33;53.42
68867;SHT30;56451;44.804;20.476;2023-07-29T05:30:33;25.34;53.91
68867;SHT30;56451;44.804;20.476;2023-07-29T05:33:06;25.37;53.56
68867;SHT30;56451;44.804;20.476;2023-07-29T05:35:35;25.35;53.19
68867;SHT30;56451;44.804;20.476;2023-07-29T05:38:01;25.41;53.15
68867;SHT30;56451;44.804;20.476;2023-07-29T05:40:29;25.41;53.31
68867;SHT30;56451;44.804;20.476;2023-07-29T05:42:55;25.45;53.59
68867;SHT30;56451;44.804;20.476;2023-07-29T05:45:21;25.51;52.78
68867;SHT30;56451;44.804;20.476;2023-07-29T05:47:47;25.54;52.79
68867;SHT30;56451;44.804;20.476;2023-07-29T05:50:13;25.53;51.76
68867;SHT30;56451;44.804;20.476;2023-07-29T05:52:39;25.53;51.61
68867;SHT30;56451;44.804;20.476;2023-07-29T05:55:06;25.51;51.61
68867;SHT30;56451;44.804;20.476;2023-07-29T05:57:32;25.44;50.38
68867;SHT30;56451;44.804;20.476;2023-07-29T05:59:58;25.40;50.82
68867;SHT30;56451;44.804;20.476;2023-07-29T06:02:24;25.40;51.08
68867;SHT30;56451;44.804;20.476;2023-07-29T06:04:51;25.38;50.16
68867;SHT30;56451;44.804;20.476;2023-07-29T06:07:17;25.47;50.75
68867;SHT30;56451;44.804;20.476;2023-07-29T06:09:43;25.43;51.20
68867;SHT30;56451;44.804;20.476;2023-07-29T06:12:09;25.43;51.12
68867;SHT30;56451;44.804;20.476;2023-07-29T06:14:38;25.40;51.49
68867;SHT30;56451;44.804;20.476;2023-07-29T06:17:04;25.44;51.82
68867;SHT30;56451;44.804;20.476;2023-07-29T06:19:32;25.43;52.44
68867;SHT30;56451;44.804;20.476;2023-07-29T06:21:58;25.44;52.27
68867;SHT30;56451;44.804;20.476;2023-07-29T06:24:24;25.43;51.59
68867;SHT30;56451;44.804;20.476;2023-07-29T06:26:50;25.40;51.53
68867;SHT30;56451;44.804;20.476;2023-07-29T06:29:16;25.50;51.56
68867;SHT30;56451;44.804;20.476;2023-07-29T06:31:42;25.51;51.87
68867;SHT30;56451;44.804;20.476;2023-07-29T06:34:08;25.53;51.68
68867;SHT30;56451;44.804;20.476;2023-07-29T06:36:33;25.60;52.43
68867;SHT30;56451;44.804;20.476;2023-07-29T06:38:59;25.61;52.18
68867;SHT30;56451;44.804;20.476;2023-07-29T06:41:25;25.63;51.86
68867;SHT30;56451;44.804;20.476;2023-07-29T06:43:51;25.63;51.90
68867;SHT30;56451;44.804;20.476;2023-07-29T06:46:17;25.61;52.78
68867;SHT30;56451;44.804;20.476;2023-07-29T06:48:44;25.63;52.57
68867;SHT30;56451;44.804;20.476;2023-07-29T06:51:10;25.68;52.02
68867;SHT30;56451;44.804;20.476;2023-07-29T06:53:35;25.70;52.25
68867;SHT30;56451;44.804;20.476;2023-07-29T06:56:02;25.72;52.14
68867;SHT30;56451;44.804;20.476;2023-07-29T06:58:28;25.80;51.86
68867;SHT30;56451;44.804;20.476;2023-07-29T07:00:54;25.86;51.95
68867;SHT30;56451;44.804;20.476;2023-07-29T07:03:20;25.89;52.87
68867;SHT30;56451;44.804;20.476;2023-07-29T07:05:46;25.93;52.58
68867;SHT30;56451;44.804;20.476;2023-07-29T07:08:12;25.95;52.45
68867;SHT30;56451;44.804;20.476;2023-07-29T07:10:38;25.98;52.50
68867;SHT30;56451;44.804;20.476;2023-07-29T07:13:03;26.03;51.92
68867;SHT30;56451;44.804;20.476;2023-07-29T07:15:29;26.12;52.16
68867;SHT30;56451;44.804;20.476;2023-07-29T07:17:55;26.18;52.15
68867;SHT30;56451;44.804;20.476;2023-07-29T07:20:22;26.22;52.19
68867;SHT30;56451;44.804;20.476;2023-07-29T07:22:47;26.28;51.72
68867;SHT30;56451;44.804;20.476;2023-07-29T07:25:13;26.35;51.30
68867;SHT30;56451;44.804;20.476;2023-07-29T07:27:39;26.39;51.91
68867;SHT30;56451;44.804;20.476;2023-07-29T07:30:06;26.44;51.84
68867;SHT30;56451;44.804;20.476;2023-07-29T07:32:32;26.46;51.61
68867;SHT30;56451;44.804;20.476;2023-07-29T07:34:58;26.54;51.66
68867;SHT30;56451;44.804;20.476;2023-07-29T07:37:24;26.64;51.83
68867;SHT30;56451;44.804;20.476;2023-07-29T07:39:50;26.67;51.57
68867;SHT30;56451;44.804;20.476;2023-07-29T07:42:16;26.71;52.11
68867;SHT30;56451;44.804;20.476;2023-07-29T07:44:42;26.76;51.82
68867;SHT30;56451;44.804;20.476;2023-07-29T07:47:08;26.77;52.03
68867;SHT30;56451;44.804;20.476;2023-07-29T07:49:34;26.84;51.98
68867;SHT30;56451;44.804;20.476;2023-07-29T07:52:00;26.88;51.68
68867;SHT30;56451;44.804;20.476;2023-07-29T07:54:26;26.92;51.59
68867;SHT30;56451;44.804;20.476;2023-07-29T07:56:51;27.01;51.03
68867;SHT30;56451;44.804;20.476;2023-07-29T07:59:17;26.99;51.67
68867;SHT30;56451;44.804;20.476;2023-07-29T08:01:43;27.08;51.42
68867;SHT30;56451;44.804;20.476;2023-07-29T08:04:09;27.09;51.25
68867;SHT30;56451;44.804;20.476;2023-07-29T08:06:37;27.07;51.93
68867;SHT30;56451;44.804;20.476;2023-07-29T08:09:03;27.08;51.89
68867;SHT30;56451;44.804;20.476;2023-07-29T08:11:29;27.08;51.49
68867;SHT30;56451;44.804;20.476;2023-07-29T08:13:54;27.11;51.80
68867;SHT30;56451;44.804;20.476;2023-07-29T08:16:21;27.09;50.90
68867;SHT30;56451;44.804;20.476;2023-07-29T08:18:47;27.15;50.77
68867;SHT30;56451;44.804;20.476;2023-07-29T08:21:13;27.16;50.23
68867;SHT30;56451;44.804;20.476;2023-07-29T08:23:38;27.15;50.32
68867;SHT30;56451;44.804;20.476;2023-07-29T08:26:05;27.19;50.26
68867;SHT30;56451;44.804;20.476;2023-07-29T08:28:36;27.21;50.07
68867;SHT30;56451;44.804;20.476;2023-07-29T08:31:02;27.26;50.16
68867;SHT30;56451;44.804;20.476;2023-07-29T08:33:29;27.29;50.59
68867;SHT30;56451;44.804;20.476;2023-07-29T08:35:55;27.29;49.72
68867;SHT30;56451;44.804;20.476;2023-07-29T08:38:21;27.31;50.05
68867;SHT30;56451;44.804;20.476;2023-07-29T08:41:25;27.36;49.69
68867;SHT30;56451;44.804;20.476;2023-07-29T08:44:10;27.46;48.67
68867;SHT30;56451;44.804;20.476;2023-07-29T08:46:39;27.45;48.65
68867;SHT30;56451;44.804;20.476;2023-07-29T08:49:05;27.49;48.00
68867;SHT30;56451;44.804;20.476;2023-07-29T08:51:31;27.59;47.93
68867;SHT30;56451;44.804;20.476;2023-07-29T08:53:58;27.59;48.26
68867;SHT30;56451;44.804;20.476;2023-07-29T08:56:25;27.62;47.70
68867;SHT30;56451;44.804;20.476;2023-07-29T08:58:52;27.66;47.67
68867;SHT30;56451;44.804;20.476;2023-07-29T09:01:18;27.69;47.66
68867;SHT30;56451;44.804;20.476;2023-07-29T09:03:44;27.74;46.55
68867;SHT30;56451;44.804;20.476;2023-07-29T09:06:10;27.79;47.11
68867;SHT30;56451;44.804;20.476;2023-07-29T09:08:37;27.79;47.32
68867;SHT30;56451;44.804;20.476;2023-07-29T09:11:03;27.87;47.34
68867;SHT30;56451;44.804;20.476;2023-07-29T09:13:29;27.97;45.76
68867;SHT30;56451;44.804;20.476;2023-07-29T09:15:57;28.01;45.91
68867;SHT30;56451;44.804;20.476;2023-07-29T09:18:26;28.14;44.88
68867;SHT30;56451;44.804;20.476;2023-07-29T09:20:53;28.14;45.49
68867;SHT30;56451;44.804;20.476;2023-07-29T09:23:19;28.13;45.96
68867;SHT30;56451;44.804;20.476;2023-07-29T09:25:48;28.15;45.03
68867;SHT30;56451;44.804;20.476;2023-07-29T09:28:16;28.20;45.17
68867;SHT30;56451;44.804;20.476;2023-07-29T09:30:45;28.27;45.82
68867;SHT30;56451;44.804;20.476;2023-07-29T09:33:12;28.32;46.38
68867;SHT30;56451;44.804;20.476;2023-07-29T09:35:38;28.37;46.15
68867;SHT30;56451;44.804;20.476;2023-07-29T09:38:05;28.47;46.64
68867;SHT30;56451;44.804;20.476;2023-07-29T09:40:36;28.49;46.35
68867;SHT30;56451;44.804;20.476;2023-07-29T09:43:03;28.55;46.44
68867;SHT30;56451;44.804;20.476;2023-07-29T09:45:30;28.61;46.10
68867;SHT30;56451;44.804;20.476;2023-07-29T09:47:57;28.69;45.83
68867;SHT30;56451;44.804;20.476;2023-07-29T09:50:24;28.72;45.92
68867;SHT30;56451;44.804;20.476;2023-07-29T09:52:51;28.73;46.06
68867;SHT30;56451;44.804;20.476;2023-07-29T09:55:19;28.69;45.97
68867;SHT30;56451;44.804;20.476;2023-07-29T09:57:45;28.80;45.63
68867;SHT30;56451;44.804;20.476;2023-07-29T10:00:12;28.79;45.96
68867;SHT30;56451;44.804;20.476;2023-07-29T10:02:39;28.76;46.25
68867;SHT30;56451;44.804;20.476;2023-07-29T10:05:07;28.88;45.25
68867;SHT30;56451;44.804;20.476;2023-07-29T10:07:38;28.95;44.71
68867;SHT30;56451;44.804;20.476;2023-07-29T10:10:06;28.95;44.63
68867;SHT30;56451;44.804;20.476;2023-07-29T10:12:34;28.84;44.91
68867;SHT30;56451;44.804;20.476;2023-07-29T10:15:03;28.88;44.74
68867;SHT30;56451;44.804;20.476;2023-07-29T10:17:30;28.84;45.02
68867;SHT30;56451;44.804;20.476;2023-07-29T10:19:57;28.90;45.10
68867;SHT30;56451;44.804;20.476;2023-07-29T10:22:28;29.00;44.24
68867;SHT30;56451;44.804;20.476;2023-07-29T10:25:23;28.96;44.92
68867;SHT30;56451;44.804;20.476;2023-07-29T10:28:01;29.03;44.48
68867;SHT30;56451;44.804;20.476;2023-07-29T10:30:30;29.11;43.93
68867;SHT30;56451;44.804;20.476;2023-07-29T10:32:58;29.13;44.14
68867;SHT30;56451;44.804;20.476;2023-07-29T10:35:27;29.14;44.31
68867;SHT30;56451;44.804;20.476;2023-07-29T10:37:53;29.20;43.73
68867;SHT30;56451;44.804;20.476;2023-07-29T10:40:20;29.24;43.61
68867;SHT30;56451;44.804;20.476;2023-07-29T10:43:11;29.30;43.39
68867;SHT30;56451;44.804;20.476;2023-07-29T10:45:41;29.26;43.58
68867;SHT30;56451;44.804;20.476;2023-07-29T10:48:11;29.21;44.19
68867;SHT30;56451;44.804;20.476;2023-07-29T10:50:38;29.17;44.24
68867;SHT30;56451;44.804;20.476;2023-07-29T10:53:04;29.20;43.91
68867;SHT30;56451;44.804;20.476;2023-07-29T10:55:34;29.29;43.68
68867;SHT30;56451;44.804;20.476;2023-07-29T11:00:32;29.33;43.24
68867;SHT30;56451;44.804;20.476;2023-07-29T11:03:01;29.37;43.03
68867;SHT30;56451;44.804;20.476;2023-07-29T11:05:45;29.35;42.96
68867;SHT30;56451;44.804;20.476;2023-07-29T11:08:29;29.34;43.18
68867;SHT30;56451;44.804;20.476;2023-07-29T11:11:05;29.30;43.21
68867;SHT30;56451;44.804;20.476;2023-07-29T11:13:35;29.31;43.40
68867;SHT30;56451;44.804;20.476;2023-07-29T11:16:03;29.37;43.78
68867;SHT30;56451;44.804;20.476;2023-07-29T11:18:32;29.33;43.87
68867;SHT30;56451;44.804;20.476;2023-07-29T11:20:59;29.29;44.12
68867;SHT30;56451;44.804;20.476;2023-07-29T11:23:36;29.35;43.96
68867;SHT30;56451;44.804;20.476;2023-07-29T11:26:03;29.38;44.15
68867;SHT30;56451;44.804;20.476;2023-07-29T11:28:30;29.37;44.16
68867;SHT30;56451;44.804;20.476;2023-07-29T11:30:57;29.41;44.69
68867;SHT30;56451;44.804;20.476;2023-07-29T11:33:25;29.41;44.94
68867;SHT30;56451;44.804;20.476;2023-07-29T11:35:54;29.43;44.66
68867;SHT30;56451;44.804;20.476;2023-07-29T11:38:21;29.41;44.85
68867;SHT30;56451;44.804;20.476;2023-07-29T11:40:59;29.48;44.58
68867;SHT30;56451;44.804;20.476;2023-07-29T11:43:26;29.50;44.62
68867;SHT30;56451;44.804;20.476;2023-07-29T11:45:53;29.48;44.81
68867;SHT30;56451;44.804;20.476;2023-07-29T11:48:30;29.57;44.29
68867;SHT30;56451;44.804;20.476;2023-07-29T11:50:56;29.54;44.61
68867;SHT30;56451;44.804;20.476;2023-07-29T11:53:26;29.55;44.44
68867;SHT30;56451;44.804;20.476;2023-07-29T11:55:53;29.61;43.49
68867;SHT30;56451;44.804;20.476;2023-07-29T11:58:20;29.61;44.27
68867;SHT30;56451;44.804;20.476;2023-07-29T12:00:46;29.61;44.09
68867;SHT30;56451;44.804;20.476;2023-07-29T12:03:12;29.65;43.90
68867;SHT30;56451;44.804;20.476;2023-07-29T12:05:39;29.62;43.84
68867;SHT30;56451;44.804;20.476;2023-07-29T12:08:05;29.61;43.96
68867;SHT30;56451;44.804;20.476;2023-07-29T12:10:31;29.67;43.97
68867;SHT30;56451;44.804;20.476;2023-07-29T12:12:58;29.74;43.34
68867;SHT30;56451;44.804;20.476;2023-07-29T12:15:28;29.74;43.58
68867;SHT30;56451;44.804;20.476;2023-07-29T12:17:55;29.85;42.98
68867;SHT30;56451;44.804;20.476;2023-07-29T12:20:22;30.01;42.97
68867;SHT30;56451;44.804;20.476;2023-07-29T12:22:55;30.04;43.22
68867;SHT30;56451;44.804;20.476;2023-07-29T12:25:22;30.13;42.90
68867;SHT30;56451;44.804;20.476;2023-07-29T12:27:48;30.19;42.63
68867;SHT30;56451;44.804;20.476;2023-07-29T12:30:15;30.29;42.34
68867;SHT30;56451;44.804;20.476;2023-07-29T12:32:47;30.36;42.38
68867;SHT30;56451;44.804;20.476;2023-07-29T12:35:14;30.43;42.35
68867;SHT30;56451;44.804;20.476;2023-07-29T12:37:40;30.46;42.29
68867;SHT30;56451;44.804;20.476;2023-07-29T12:40:21;30.52;42.29
68867;SHT30;56451;44.804;20.476;2023-07-29T12:42:49;30.48;42.23
68867;SHT30;56451;44.804;20.476;2023-07-29T12:45:16;30.46;42.39
68867;SHT30;56451;44.804;20.476;2023-07-29T12:47:44;30.54;42.24
68867;SHT30;56451;44.804;20.476;2023-07-29T12:50:10;30.57;42.01
68867;SHT30;56451;44.804;20.476;2023-07-29T12:52:36;30.59;42.01
68867;SHT30;56451;44.804;20.476;2023-07-29T12:55:02;30.59;42.01
68867;SHT30;56451;44.804;20.476;2023-07-29T12:57:28;30.63;42.08
68867;SHT30;56451;44.804;20.476;2023-07-29T12:59:54;30.63;42.50
68867;SHT30;56451;44.804;20.476;2023-07-29T13:02:20;30.67;42.39
68867;SHT30;56451;44.804;20.476;2023-07-29T13:04:46;30.68;42.63
68867;SHT30;56451;44.804;20.476;2023-07-29T13:07:12;30.74;42.20
68867;SHT30;56451;44.804;20.476;2023-07-29T13:09:38;30.78;41.91
68867;SHT30;56451;44.804;20.476;2023-07-29T13:12:05;30.75;41.90
68867;SHT30;56451;44.804;20.476;2023-07-29T13:14:31;30.75;41.70
68867;SHT30;56451;44.804;20.476;2023-07-29T13:16:56;30.78;41.75
68867;SHT30;56451;44.804;20.476;2023-07-29T13:19:22;30.75;41.62
68867;SHT30;56451;44.804;20.476;2023-07-29T13:21:49;30.77;41.94
68867;SHT30;56451;44.804;20.476;2023-07-29T13:24:15;30.67;42.29
68867;SHT30;56451;44.804;20.476;2023-07-29T13:26:40;30.68;42.66
68867;SHT30;56451;44.804;20.476;2023-07-29T13:29:07;30.67;42.48
68867;SHT30;56451;44.804;20.476;2023-07-29T13:31:33;30.73;42.26
68867;SHT30;56451;44.804;20.476;2023-07-29T13:33:59;30.71;42.42
68867;SHT30;56451;44.804;20.476;2023-07-29T13:36:25;30.75;42.52
68867;SHT30;56451;44.804;20.476;2023-07-29T13:38:51;30.80;42.40
68867;SHT30;56451;44.804;20.476;2023-07-29T13:41:17;30.81;42.79
68867;SHT30;56451;44.804;20.476;2023-07-29T13:43:43;30.84;42.55
68867;SHT30;56451;44.804;20.476;2023-07-29T13:46:09;30.85;42.64
68867;SHT30;56451;44.804;20.476;2023-07-29T13:48:36;30.87;42.31
68867;SHT30;56451;44.804;20.476;2023-07-29T13:51:02;30.90;42.59
68867;SHT30;56451;44.804;20.476;2023-07-29T13:53:27;30.91;42.81
68867;SHT30;56451;44.804;20.476;2023-07-29T13:55:53;30.94;42.81
68867;SHT30;56451;44.804;20.476;2023-07-29T13:58:19;30.98;42.57
68867;SHT30;56451;44.804;20.476;2023-07-29T14:00:45;30.99;42.28
68867;SHT30;56451;44.804;20.476;2023-07-29T14:03:11;30.99;42.69
68867;SHT30;56451;44.804;20.476;2023-07-29T14:05:37;31.02;42.32
68867;SHT30;56451;44.804;20.476;2023-07-29T14:08:04;31.08;42.25
68867;SHT30;56451;44.804;20.476;2023-07-29T14:10:29;31.18;42.21
68867;SHT30;56451;44.804;20.476;2023-07-29T14:12:55;31.26;41.70
68867;SHT30;56451;44.804;20.476;2023-07-29T14:15:21;31.35;41.52
68867;SHT30;56451;44.804;20.476;2023-07-29T14:17:47;31.41;41.57
68867;SHT30;56451;44.804;20.476;2023-07-29T14:20:13;31.46;41.45
68867;SHT30;56451;44.804;20.476;2023-07-29T14:22:39;31.50;41.04
68867;SHT30;56451;44.804;20.476;2023-07-29T14:25:05;31.67;40.63
68867;SHT30;56451;44.804;20.476;2023-07-29T14:27:32;31.81;40.10
68867;SHT30;56451;44.804;20.476;2023-07-29T14:29:58;31.90;40.25
68867;SHT30;56451;44.804;20.476;2023-07-29T14:32:24;31.91;40.25
68867;SHT30;56451;44.804;20.476;2023-07-29T14:34:51;31.98;40.43
68867;SHT30;56451;44.804;20.476;2023-07-29T14:37:17;32.04;40.44
68867;SHT30;56451;44.804;20.476;2023-07-29T14:39:43;32.13;40.25
68867;SHT30;56451;44.804;20.476;2023-07-29T14:42:09;32.18;39.92
68867;SHT30;56451;44.804;20.476;2023-07-29T14:44:35;32.23;40.08
68867;SHT30;56451;44.804;20.476;2023-07-29T14:47:01;32.31;39.78
68867;SHT30;56451;44.804;20.476;2023-07-29T14:49:27;32.38;39.43
68867;SHT30;56451;44.804;20.476;2023-07-29T14:51:53;32.38;39.77
68867;SHT30;56451;44.804;20.476;2023-07-29T14:54:19;32.41;39.84
68867;SHT30;56451;44.804;20.476;2023-07-29T14:56:45;32.48;39.86
68867;SHT30;56451;44.804;20.476;2023-07-29T14:59:11;32.54;39.72
68867;SHT30;56451;44.804;20.476;2023-07-29T15:01:38;32.59;39.30
68867;SHT30;56451;44.804;20.476;2023-07-29T15:04:04;32.65;39.30
68867;SHT30;56451;44.804;20.476;2023-07-29T15:06:30;32.68;39.31
68867;SHT30;56451;44.804;20.476;2023-07-29T15:08:56;32.71;39.13
68867;SHT30;56451;44.804;20.476;2023-07-29T15:11:21;32.80;38.22
68867;SHT30;56451;44.804;20.476;2023-07-29T15:13:47;32.79;38.08
68867;SHT30;56451;44.804;20.476;2023-07-29T15:16:14;32.74;38.31
68867;SHT30;56451;44.804;20.476;2023-07-29T15:18:39;32.78;38.02
68867;SHT30;56451;44.804;20.476;2023-07-29T15:21:05;32.79;37.78
68867;SHT30;56451;44.804;20.476;2023-07-29T15:23:31;32.78;37.88
68867;SHT30;56451;44.804;20.476;2023-07-29T15:25:57;32.76;37.00